sensor_id;sensor_type;location;lat;lon;timestamp;pressure;altitude;pressure_sealevel;temperature;humidity
48517;BME280;34310;51.904;4.256;2023-11-18T00:02:23;102385.31;;;14.35;69.44
48517;BME280;34310;51.904;4.256;2023-11-18T00:04:50;102383.38;;;14.32;69.71
48517;BME280;34310;51.904;4.256;2023-11-18T00:07:17;102376.25;;;14.30;69.63
48517;BME280;34310;51.904;4.256;2023-11-18T00:09:43;102375.47;;;14.31;69.65
48517;BME280;34310;51.904;4.256;2023-11-18T00:12:10;102378.06;;;14.31;69.63
48517;BME280;34310;51.904;4.256;2023-11-18T00:14:36;102362.78;;;14.23;69.70
48517;BME280;34310;51.904;4.256;2023-11-18T00:17:03;102376.13;;;14.28;69.54
48517;BME280;34310;51.904;4.256;2023-11-18T00:19:30;102380.16;;;14.24;69.73
48517;BME280;34310;51.904;4.256;2023-11-18T00:21:56;102370.56;;;14.23;69.62
48517;BME280;34310;51.904;4.256;2023-11-18T00:24:23;102383.69;;;14.25;69.61
48517;BME280;34310;51.904;4.256;2023-11-18T00:26:49;102381.06;;;14.25;69.61
48517;BME280;34310;51.904;4.256;2023-11-18T00:29:16;102380.06;;;14.23;69.64
48517;BME280;34310;51.904;4.256;2023-11-18T00:31:42;102380.97;;;14.23;69.77
48517;BME280;34310;51.904;4.256;2023-11-18T00:34:09;102374.38;;;14.17;69.69
48517;BME280;34310;51.904;4.256;2023-11-18T00:36:35;102386.03;;;14.22;69.79
48517;BME280;34310;51.904;4.256;2023-11-18T00:39:02;102398.13;;;14.21;69.99
48517;BME280;34310;51.904;4.256;2023-11-18T00:41:28;102394.59;;;14.21;69.91
48517;BME280;34310;51.904;4.256;2023-11-18T00:43:54;102397.22;;;14.21;69.99
48517;BME280;34310;51.904;4.256;2023-11-18T00:46:21;102393.69;;;14.20;69.60
48517;BME280;34310;51.904;4.256;2023-11-18T00:48:48;102404.09;;;14.20;69.75
48517;BME280;34310;51.904;4.256;2023-11-18T00:51:15;102401.50;;;14.20;70.02
48517;BME280;34310;51.904;4.256;2023-11-18T00:53:42;102379.81;;;14.20;69.69
48517;BME280;34310;51.904;4.256;2023-11-18T00:56:13;102393.69;;;14.20;70.03
48517;BME280;34310;51.904;4.256;2023-11-18T00:58:41;102384.59;;;14.15;69.98
48517;BME280;34310;51.904;4.256;2023-11-18T01:01:07;102396.19;;;14.19;69.85
48517;BME280;34310;51.904;4.256;2023-11-18T01:03:34;102391.78;;;14.18;69.90
48517;BME280;34310;51.904;4.256;2023-11-18T01:06:01;102401.25;;;14.17;69.81
48517;BME280;34310;51.904;4.256;2023-11-18T01:08:27;102399.56;;;14.18;69.79
48517;BME280;34310;51.904;4.256;2023-11-18T01:10:53;102394.22;;;14.16;69.87
48517;BME280;34310;51.904;4.256;2023-11-18T01:13:20;102396.78;;;14.26;69.62
48517;BME280;34310;51.904;4.256;2023-11-18T01:15:48;102392.63;;;14.29;69.40
48517;BME280;34310;51.904;4.256;2023-11-18T01:18:14;102390.50;;;14.35;69.30
48517;BME280;34310;51.904;4.256;2023-11-18T01:20:41;102393.88;;;14.44;69.38
48517;BME280;34310;51.904;4.256;2023-11-18T01:23:07;102385.78;;;14.51;69.33
48517;BME280;34310;51.904;4.256;2023-11-18T01:25:34;102397.81;;;14.61;69.15
48517;BME280;34310;51.904;4.256;2023-11-18T01:28:00;102403.50;;;14.67;68.80
48517;BME280;34310;51.904;4.256;2023-11-18T01:30:27;102396.97;;;14.72;68.82
48517;BME280;34310;51.904;4.256;2023-11-18T01:32:53;102395.28;;;14.72;68.76
48517;BME280;34310;51.904;4.256;2023-11-18T01:35:20;102391.88;;;14.73;68.62
48517;BME280;34310;51.904;4.256;2023-11-18T01:37:46;102390.97;;;14.73;68.72
48517;BME280;34310;51.904;4.256;2023-11-18T01:40:13;102397.09;;;14.73;68.63
48517;BME280;34310;51.904;4.256;2023-11-18T01:42:42;102395.94;;;14.70;68.68
48517;BME280;34310;51.904;4.256;2023-11-18T01:45:09;102402.84;;;14.69;68.72
48517;BME280;34310;51.904;4.256;2023-11-18T01:47:35;102406.34;;;14.70;68.83
48517;BME280;34310;51.904;4.256;2023-11-18T01:50:03;102402.59;;;14.66;68.49
48517;BME280;34310;51.904;4.256;2023-11-18T01:52:31;102398.72;;;14.61;68.70
48517;BME280;34310;51.904;4.256;2023-11-18T01:54:59;102404.84;;;14.62;68.80
48517;BME280;34310;51.904;4.256;2023-11-18T01:57:26;102401.31;;;14.61;68.85
48517;BME280;34310;51.904;4.256;2023-11-18T01:59:53;102403.81;;;14.60;68.69
48517;BME280;34310;51.904;4.256;2023-11-18T02:02:20;102403.31;;;14.53;69.02
48517;BME280;34310;51.904;4.256;2023-11-18T02:04:47;102406.72;;;14.52;68.98
48517;BME280;34310;51.904;4.256;2023-11-18T02:07:14;102414.38;;;14.51;69.26
48517;BME280;34310;51.904;4.256;2023-11-18T02:09:41;102414.38;;;14.51;69.11
48517;BME280;34310;51.904;4.256;2023-11-18T02:12:29;102408.16;;;14.49;69.15
48517;BME280;34310;51.904;4.256;2023-11-18T02:14:57;102412.44;;;14.48;69.26
48517;BME280;34310;51.904;4.256;2023-11-18T02:17:25;102407.91;;;14.46;69.05
48517;BME280;34310;51.904;4.256;2023-11-18T02:19:53;102396.31;;;14.42;69.16
48517;BME280;34310;51.904;4.256;2023-11-18T02:22:19;102386.84;;;14.43;69.22
48517;BME280;34310;51.904;4.256;2023-11-18T02:24:46;102385.16;;;14.43;69.19
48517;BME280;34310;51.904;4.256;2023-11-18T02:27:12;102386.69;;;14.41;69.45
48517;BME280;34310;51.904;4.256;2023-11-18T02:29:44;102367.59;;;14.41;69.29
48517;BME280;34310;51.904;4.256;2023-11-18T02:32:20;102376.47;;;14.43;69.12
48517;BME280;34310;51.904;4.256;2023-11-18T02:34:56;102369.28;;;14.40;69.21
48517;BME280;34310;51.904;4.256;2023-11-18T02:37:25;102365.00;;;14.41;69.15
48517;BME280;34310;51.904;4.256;2023-11-18T02:39:53;102371.91;;;14.40;69.13
48517;BME280;34310;51.904;4.256;2023-11-18T02:42:23;102363.97;;;14.39;69.31
48517;BME280;34310;51.904;4.256;2023-11-18T02:44:52;102354.59;;;14.41;69.17
48517;BME280;34310;51.904;4.256;2023-11-18T02:47:18;102354.59;;;14.41;69.11
48517;BME280;34310;51.904;4.256;2023-11-18T02:49:45;102354.50;;;14.39;69.19
48517;BME280;34310;51.904;4.256;2023-11-18T02:52:11;102346.69;;;14.39;69.20
48517;BME280;34310;51.904;4.256;2023-11-18T02:54:38;102352.81;;;14.40;69.04
48517;BME280;34310;51.904;4.256;2023-11-18T02:57:04;102348.38;;;14.39;69.01
48517;BME280;34310;51.904;4.256;2023-11-18T02:59:31;102347.25;;;14.35;69.00
48517;BME280;34310;51.904;4.256;2023-11-18T03:01:57;102349.97;;;14.37;68.96
48517;BME280;34310;51.904;4.256;2023-11-18T03:04:24;102340.34;;;14.36;69.18
48517;BME280;34310;51.904;4.256;2023-11-18T03:06:50;102337.50;;;14.33;69.23
48517;BME280;34310;51.904;4.256;2023-11-18T03:09:17;102335.69;;;14.32;69.27
48517;BME280;34310;51.904;4.256;2023-11-18T03:11:43;102334.81;;;14.31;69.10
48517;BME280;34310;51.904;4.256;2023-11-18T03:14:10;102340.78;;;14.30;69.32
48517;BME280;34310;51.904;4.256;2023-11-18T03:16:37;102335.47;;;14.29;69.29
48517;BME280;34310;51.904;4.256;2023-11-18T03:19:04;102331.84;;;14.26;69.25
48517;BME280;34310;51.904;4.256;2023-11-18T03:21:30;102341.22;;;14.24;69.48
48517;BME280;34310;51.904;4.256;2023-11-18T03:23:57;102315.78;;;14.20;69.26
48517;BME280;34310;51.904;4.256;2023-11-18T03:26:23;102301.09;;;14.21;69.30
48517;BME280;34310;51.904;4.256;2023-11-18T03:28:50;102302.13;;;14.23;69.52
48517;BME280;34310;51.904;4.256;2023-11-18T03:31:16;102313.19;;;14.20;69.50
48517;BME280;34310;51.904;4.256;2023-11-18T03:33:42;102290.31;;;14.16;69.63
48517;BME280;34310;51.904;4.256;2023-11-18T03:36:09;102290.59;;;14.19;69.32
48517;BME280;34310;51.904;4.256;2023-11-18T03:38:36;102285.38;;;14.19;69.33
48517;BME280;34310;51.904;4.256;2023-11-18T03:41:02;102280.97;;;14.18;69.47
48517;BME280;34310;51.904;4.256;2023-11-18T03:43:29;102279.28;;;14.19;69.37
48517;BME280;34310;51.904;4.256;2023-11-18T03:45:55;102276.56;;;14.17;69.52
48517;BME280;34310;51.904;4.256;2023-11-18T03:48:23;102292.16;;;14.17;69.43
48517;BME280;34310;51.904;4.256;2023-11-18T03:50:50;102286.06;;;14.17;69.48
48517;BME280;34310;51.904;4.256;2023-11-18T03:53:16;102269.28;;;14.13;69.53
48517;BME280;34310;51.904;4.256;2023-11-18T03:55:43;102265.00;;;14.14;69.50
48517;BME280;34310;51.904;4.256;2023-11-18T03:58:09;102258.91;;;14.13;69.50
48517;BME280;34310;51.904;4.256;2023-11-18T04:00:36;102261.63;;;14.15;69.48
48517;BME280;34310;51.904;4.256;2023-11-18T04:03:02;102252.53;;;14.20;69.61
48517;BME280;34310;51.904;4.256;2023-11-18T04:05:29;102253.13;;;14.27;69.09
48517;BME280;34310;51.904;4.256;2023-11-18T04:07:55;102244.66;;;14.30;69.08
48517;BME280;34310;51.904;4.256;2023-11-18T04:10:21;102245.25;;;14.38;68.60
48517;BME280;34310;51.904;4.256;2023-11-18T04:12:48;102235.34;;;14.44;68.78
48517;BME280;34310;51.904;4.256;2023-11-18T04:15:15;102228.28;;;14.53;68.55
48517;BME280;34310;51.904;4.256;2023-11-18T04:17:41;102220.94;;;14.59;68.40
48517;BME280;34310;51.904;4.256;2023-11-18T04:20:10;102221.53;;;14.67;68.46
48517;BME280;34310;51.904;4.256;2023-11-18T04:22:43;102212.94;;;14.68;68.29
48517;BME280;34310;51.904;4.256;2023-11-18T04:25:10;102206.03;;;14.68;68.25
48517;BME280;34310;51.904;4.256;2023-11-18T04:27:38;102207.84;;;14.69;68.19
48517;BME280;34310;51.904;4.256;2023-11-18T04:30:05;102211.13;;;14.67;68.17
48517;BME280;34310;51.904;4.256;2023-11-18T04:32:32;102217.00;;;14.64;68.33
48517;BME280;34310;51.904;4.256;2023-11-18T04:34:59;102212.47;;;14.62;68.49
48517;BME280;34310;51.904;4.256;2023-11-18T04:37:26;102211.56;;;14.61;68.21
48517;BME280;34310;51.904;4.256;2023-11-18T04:39:52;102207.72;;;14.56;68.51
48517;BME280;34310;51.904;4.256;2023-11-18T04:42:19;102196.31;;;14.54;68.59
48517;BME280;34310;51.904;4.256;2023-11-18T04:44:45;102197.88;;;14.52;68.66
48517;BME280;34310;51.904;4.256;2023-11-18T04:47:11;102201.41;;;14.52;68.86
48517;BME280;34310;51.904;4.256;2023-11-18T04:49:38;102174.97;;;14.36;68.76
48517;BME280;34310;51.904;4.256;2023-11-18T04:52:05;102189.63;;;14.46;68.68
48517;BME280;34310;51.904;4.256;2023-11-18T04:54:31;102182.22;;;14.40;68.97
48517;BME280;34310;51.904;4.256;2023-11-18T04:56:58;102176.09;;;14.40;69.13
48517;BME280;34310;51.904;4.256;2023-11-18T04:59:24;102169.00;;;14.37;69.08
48517;BME280;34310;51.904;4.256;2023-11-18T05:01:51;102158.38;;;14.34;69.09
48517;BME280;34310;51.904;4.256;2023-11-18T05:04:17;102156.66;;;14.35;69.14
48517;BME280;34310;51.904;4.256;2023-11-18T05:06:44;102158.25;;;14.33;69.14
48517;BME280;34310;51.904;4.256;2023-11-18T05:09:10;102156.44;;;14.32;69.14
48517;BME280;34310;51.904;4.256;2023-11-18T05:11:37;102167.97;;;14.35;69.19
48517;BME280;34310;51.904;4.256;2023-11-18T05:14:03;102158.25;;;14.33;69.03
48517;BME280;34310;51.904;4.256;2023-11-18T05:16:30;102159.81;;;14.31;69.15
48517;BME280;34310;51.904;4.256;2023-11-18T05:18:56;102154.06;;;14.35;69.01
48517;BME280;34310;51.904;4.256;2023-11-18T05:21:23;102150.56;;;14.34;69.10
48517;BME280;34310;51.904;4.256;2023-11-18T05:23:50;102139.16;;;14.32;69.02
48517;BME280;34310;51.904;4.256;2023-11-18T05:26:16;102139.28;;;14.34;68.92
48517;BME280;34310;51.904;4.256;2023-11-18T05:28:42;102136.69;;;14.34;69.07
48517;BME280;34310;51.904;4.256;2023-11-18T05:31:09;102137.56;;;14.34;69.18
48517;BME280;34310;51.904;4.256;2023-11-18T05:33:35;102133.41;;;14.36;68.75
48517;BME280;34310;51.904;4.256;2023-11-18T05:36:02;102124.34;;;14.31;68.77
48517;BME280;34310;51.904;4.256;2023-11-18T05:38:29;102142.91;;;14.36;68.70
48517;BME280;34310;51.904;4.256;2023-11-18T05:40:56;102125.59;;;14.36;68.70
48517;BME280;34310;51.904;4.256;2023-11-18T05:43:28;102120.53;;;14.38;68.75
48517;BME280;34310;51.904;4.256;2023-11-18T05:45:55;102108.66;;;14.30;68.94
48517;BME280;34310;51.904;4.256;2023-11-18T05:48:22;102093.97;;;14.30;68.83
48517;BME280;34310;51.904;4.256;2023-11-18T05:50:48;102101.78;;;14.30;68.82
48517;BME280;34310;51.904;4.256;2023-11-18T05:53:15;102106.84;;;14.29;68.80
48517;BME280;34310;51.904;4.256;2023-11-18T05:55:41;102113.97;;;14.31;68.94
48517;BME280;34310;51.904;4.256;2023-11-18T05:58:08;102112.28;;;14.32;68.81
48517;BME280;34310;51.904;4.256;2023-11-18T06:00:34;102100.88;;;14.30;68.76
48517;BME280;34310;51.904;4.256;2023-11-18T06:03:07;102089.47;;;14.27;69.15
48517;BME280;34310;51.904;4.256;2023-11-18T06:05:33;102087.66;;;14.26;68.89
48517;BME280;34310;51.904;4.256;2023-11-18T06:08:00;102096.22;;;14.25;69.18
48517;BME280;34310;51.904;4.256;2023-11-18T06:10:26;102082.78;;;14.19;69.14
48517;BME280;34310;51.904;4.256;2023-11-18T06:12:53;102085.59;;;14.22;69.08
48517;BME280;34310;51.904;4.256;2023-11-18T06:15:19;102107.19;;;14.21;69.00
48517;BME280;34310;51.904;4.256;2023-11-18T06:17:46;102105.13;;;14.17;69.17
48517;BME280;34310;51.904;4.256;2023-11-18T06:20:12;102097.34;;;14.17;68.87
48517;BME280;34310;51.904;4.256;2023-11-18T06:22:39;102084.78;;;14.12;69.04
48517;BME280;34310;51.904;4.256;2023-11-18T06:25:06;102098.25;;;14.18;69.22
48517;BME280;34310;51.904;4.256;2023-11-18T06:27:32;102096.56;;;14.18;69.16
48517;BME280;34310;51.904;4.256;2023-11-18T06:29:59;102094.59;;;14.16;68.93
48517;BME280;34310;51.904;4.256;2023-11-18T06:32:26;102092.00;;;14.16;68.98
48517;BME280;34310;51.904;4.256;2023-11-18T06:34:52;102091.25;;;14.17;69.10
48517;BME280;34310;51.904;4.256;2023-11-18T06:37:19;102081.44;;;14.24;68.81
48517;BME280;34310;51.904;4.256;2023-11-18T06:39:46;102091.38;;;14.30;68.61
48517;BME280;34310;51.904;4.256;2023-11-18T06:42:13;102086.28;;;14.32;68.41
48517;BME280;34310;51.904;4.256;2023-11-18T06:44:40;102068.00;;;14.30;68.47
48517;BME280;34310;51.904;4.256;2023-11-18T06:47:06;102060.44;;;14.33;68.57
48517;BME280;34310;51.904;4.256;2023-11-18T06:49:33;102070.03;;;14.34;68.46
48517;BME280;34310;51.904;4.256;2023-11-18T06:52:00;102065.97;;;14.38;68.33
48517;BME280;34310;51.904;4.256;2023-11-18T06:54:26;102074.72;;;14.50;68.15
48517;BME280;34310;51.904;4.256;2023-11-18T06:56:53;102075.19;;;14.56;68.33
48517;BME280;34310;51.904;4.256;2023-11-18T06:59:19;102090.31;;;14.62;68.19
48517;BME280;34310;51.904;4.256;2023-11-18T07:01:46;102071.66;;;14.67;67.89
48517;BME280;34310;51.904;4.256;2023-11-18T07:04:13;102075.97;;;14.67;67.94
48517;BME280;34310;51.904;4.256;2023-11-18T07:06:39;102079.69;;;14.70;68.06
48517;BME280;34310;51.904;4.256;2023-11-18T07:09:07;102079.25;;;14.64;68.14
48517;BME280;34310;51.904;4.256;2023-11-18T07:11:33;102082.84;;;14.66;68.06
48517;BME280;34310;51.904;4.256;2023-11-18T07:14:00;102083.66;;;14.65;68.05
48517;BME280;34310;51.904;4.256;2023-11-18T07:16:27;102074.63;;;14.60;68.09
48517;BME280;34310;51.904;4.256;2023-11-18T07:18:53;102064.78;;;14.56;68.31
48517;BME280;34310;51.904;4.256;2023-11-18T07:21:20;102075.97;;;14.55;68.56
48517;BME280;34310;51.904;4.256;2023-11-18T07:23:46;102073.38;;;14.55;68.37
48517;BME280;34310;51.904;4.256;2023-11-18T07:26:13;102069.75;;;14.53;68.42
48517;BME280;34310;51.904;4.256;2023-11-18T07:28:40;102066.94;;;14.50;68.32
48517;BME280;34310;51.904;4.256;2023-11-18T07:31:07;102069.31;;;14.47;68.63
48517;BME280;34310;51.904;4.256;2023-11-18T07:33:34;102067.25;;;14.43;68.73
48517;BME280;34310;51.904;4.256;2023-11-18T07:36:00;102061.78;;;14.40;68.85
48517;BME280;34310;51.904;4.256;2023-11-18T07:38:27;102055.69;;;14.39;68.71
48517;BME280;34310;51.904;4.256;2023-11-18T07:40:53;102052.06;;;14.37;69.07
48517;BME280;34310;51.904;4.256;2023-11-18T07:43:20;102043.03;;;14.32;68.93
48517;BME280;34310;51.904;4.256;2023-11-18T07:45:47;102035.25;;;14.32;69.04
48517;BME280;34310;51.904;4.256;2023-11-18T07:48:13;102043.72;;;14.30;69.00
48517;BME280;34310;51.904;4.256;2023-11-18T07:50:40;102043.72;;;14.30;69.13
48517;BME280;34310;51.904;4.256;2023-11-18T07:53:07;102040.31;;;14.31;69.14
48517;BME280;34310;51.904;4.256;2023-11-18T07:55:34;102035.13;;;14.31;68.96
48517;BME280;34310;51.904;4.256;2023-11-18T07:58:01;102045.41;;;14.29;69.14
48517;BME280;34310;51.904;4.256;2023-11-18T08:00:27;102041.69;;;14.25;69.02
48517;BME280;34310;51.904;4.256;2023-11-18T08:02:54;102046.31;;;14.30;69.13
48517;BME280;34310;51.904;4.256;2023-11-18T08:05:20;102038.28;;;14.26;69.09
48517;BME280;34310;51.904;4.256;2023-11-18T08:07:47;102034.69;;;14.24;69.27
48517;BME280;34310;51.904;4.256;2023-11-18T08:10:14;102041.00;;;14.28;69.22
48517;BME280;34310;51.904;4.256;2023-11-18T08:12:40;102033.09;;;14.26;69.10
48517;BME280;34310;51.904;4.256;2023-11-18T08:15:07;102025.31;;;14.26;69.03
48517;BME280;34310;51.904;4.256;2023-11-18T08:17:33;102024.50;;;14.27;68.91
48517;BME280;34310;51.904;4.256;2023-11-18T08:20:00;102027.69;;;14.23;69.15
48517;BME280;34310;51.904;4.256;2023-11-18T08:22:27;102015.94;;;14.29;68.80
48517;BME280;34310;51.904;4.256;2023-11-18T08:24:53;102014.91;;;14.26;68.91
48517;BME280;34310;51.904;4.256;2023-11-18T08:27:19;102006.78;;;14.22;68.98
48517;BME280;34310;51.904;4.256;2023-11-18T08:29:46;102004.53;;;14.26;69.04
48517;BME280;34310;51.904;4.256;2023-11-18T08:32:12;102005.53;;;14.29;68.89
48517;BME280;34310;51.904;4.256;2023-11-18T08:34:39;102004.53;;;14.26;68.86
48517;BME280;34310;51.904;4.256;2023-11-18T08:37:06;101996.84;;;14.28;68.81
48517;BME280;34310;51.904;4.256;2023-11-18T08:39:33;101982.03;;;14.27;68.96
48517;BME280;34310;51.904;4.256;2023-11-18T08:41:59;101971.66;;;14.27;68.82
48517;BME280;34310;51.904;4.256;2023-11-18T08:44:26;101973.25;;;14.25;68.88
48517;BME280;34310;51.904;4.256;2023-11-18T08:46:52;101974.94;;;14.24;68.87
48517;BME280;34310;51.904;4.256;2023-11-18T08:49:19;101975.03;;;14.26;69.12
48517;BME280;34310;51.904;4.256;2023-11-18T08:51:46;101969.75;;;14.24;68.90
48517;BME280;34310;51.904;4.256;2023-11-18T08:54:12;101971.44;;;14.24;68.76
48517;BME280;34310;51.904;4.256;2023-11-18T08:56:39;101961.94;;;14.24;68.86
48517;BME280;34310;51.904;4.256;2023-11-18T08:59:08;101956.75;;;14.24;68.82
48517;BME280;34310;51.904;4.256;2023-11-18T09:01:34;101953.25;;;14.24;68.96
48517;BME280;34310;51.904;4.256;2023-11-18T09:04:01;101949.63;;;14.22;68.85
48517;BME280;34310;51.904;4.256;2023-11-18T09:06:27;101940.16;;;14.22;68.88
48517;BME280;34310;51.904;4.256;2023-11-18T09:08:54;101928.84;;;14.22;69.05
48517;BME280;34310;51.904;4.256;2023-11-18T09:11:24;101916.41;;;14.30;68.71
48517;BME280;34310;51.904;4.256;2023-11-18T09:13:51;101918.88;;;14.40;68.53
48517;BME280;34310;51.904;4.256;2023-11-18T09:16:17;101915.59;;;14.42;68.43
48517;BME280;34310;51.904;4.256;2023-11-18T09:18:44;101918.34;;;14.44;68.32
48517;BME280;34310;51.904;4.256;2023-11-18T09:21:11;101906.16;;;14.43;68.54
48517;BME280;34310;51.904;4.256;2023-11-18T09:23:38;101894.06;;;14.43;68.43
48517;BME280;34310;51.904;4.256;2023-11-18T09:26:04;101885.47;;;14.44;68.48
48517;BME280;34310;51.904;4.256;2023-11-18T09:28:31;101879.22;;;14.42;68.46
48517;BME280;34310;51.904;4.256;2023-11-18T09:30:57;101881.81;;;14.42;68.75
48517;BME280;34310;51.904;4.256;2023-11-18T09:33:25;101896.41;;;14.40;68.54
48517;BME280;34310;51.904;4.256;2023-11-18T09:35:55;101898.22;;;14.41;68.70
48517;BME280;34310;51.904;4.256;2023-11-18T09:38:22;101885.00;;;14.38;68.71
48517;BME280;34310;51.904;4.256;2023-11-18T09:40:49;101862.31;;;14.36;68.97
48517;BME280;34310;51.904;4.256;2023-11-18T09:43:18;101847.63;;;14.36;68.74
48517;BME280;34310;51.904;4.256;2023-11-18T09:45:44;101843.31;;;14.37;68.88
48517;BME280;34310;51.904;4.256;2023-11-18T09:48:14;101853.72;;;14.37;68.96
48517;BME280;34310;51.904;4.256;2023-11-18T09:50:45;101848.41;;;14.35;68.82
48517;BME280;34310;51.904;4.256;2023-11-18T09:53:12;101849.22;;;14.34;68.85
48517;BME280;34310;51.904;4.256;2023-11-18T09:55:47;101855.09;;;14.32;68.94
48517;BME280;34310;51.904;4.256;2023-11-18T09:58:17;101831.28;;;14.25;69.10
48517;BME280;34310;51.904;4.256;2023-11-18T10:00:46;101853.28;;;14.31;68.99
48517;BME280;34310;51.904;4.256;2023-11-18T10:03:14;101858.38;;;14.29;68.99
48517;BME280;34310;51.904;4.256;2023-11-18T10:05:41;101861.88;;;14.30;69.12
48517;BME280;34310;51.904;4.256;2023-11-18T10:08:08;101859.28;;;14.30;68.76
48517;BME280;34310;51.904;4.256;2023-11-18T10:10:35;101856.66;;;14.30;68.98
48517;BME280;34310;51.904;4.256;2023-11-18T10:13:04;101844.47;;;14.29;68.98
48517;BME280;34310;51.904;4.256;2023-11-18T10:15:32;101820.88;;;14.25;69.01
48517;BME280;34310;51.904;4.256;2023-11-18T10:17:58;101811.72;;;14.31;69.03
48517;BME280;34310;51.904;4.256;2023-11-18T10:23:09;101803.03;;;14.30;68.77
48517;BME280;34310;51.904;4.256;2023-11-18T10:25:50;101808.00;;;14.27;68.98
48517;BME280;34310;51.904;4.256;2023-11-18T10:28:35;101817.59;;;14.28;68.87
48517;BME280;34310;51.904;4.256;2023-11-18T10:31:03;101812.19;;;14.25;68.83
48517;BME280;34310;51.904;4.256;2023-11-18T10:33:40;101823.38;;;14.24;68.87
48517;BME280;34310;51.904;4.256;2023-11-18T10:36:20;101819.19;;;14.26;69.09
48517;BME280;34310;51.904;4.256;2023-11-18T10:38:48;101800.78;;;14.23;68.98
48517;BME280;34310;51.904;4.256;2023-11-18T10:41:15;101788.03;;;14.26;68.96
48517;BME280;34310;51.904;4.256;2023-11-18T10:43:42;101770.41;;;14.22;69.17
48517;BME280;34310;51.904;4.256;2023-11-18T10:46:10;101741.06;;;14.23;69.20
48517;BME280;34310;51.904;4.256;2023-11-18T10:48:47;101713.97;;;14.19;69.08
48517;BME280;34310;51.904;4.256;2023-11-18T10:51:18;101692.50;;;14.22;68.97
48517;BME280;34310;51.904;4.256;2023-11-18T10:53:50;101693.59;;;14.25;68.88
48517;BME280;34310;51.904;4.256;2023-11-18T10:56:17;101694.72;;;14.29;68.74
48517;BME280;34310;51.904;4.256;2023-11-18T10:58:44;101683.03;;;14.36;68.80
48517;BME280;34310;51.904;4.256;2023-11-18T11:01:10;101693.44;;;14.47;68.79
48517;BME280;34310;51.904;4.256;2023-11-18T11:04:06;101679.25;;;14.55;68.42
48517;BME280;34310;51.904;4.256;2023-11-18T11:06:33;101693.66;;;14.64;68.46
48517;BME280;34310;51.904;4.256;2023-11-18T11:08:59;101680.97;;;14.68;68.37
48517;BME280;34310;51.904;4.256;2023-11-18T11:11:35;101661.28;;;14.72;68.25
48517;BME280;34310;51.904;4.256;2023-11-18T11:14:04;101654.03;;;14.79;68.30
48517;BME280;34310;51.904;4.256;2023-11-18T11:16:38;101644.44;;;14.78;68.24
48517;BME280;34310;51.904;4.256;2023-11-18T11:19:06;101623.72;;;14.80;68.20
48517;BME280;34310;51.904;4.256;2023-11-18T11:21:37;101614.34;;;14.82;68.15
48517;BME280;34310;51.904;4.256;2023-11-18T11:24:20;101606.03;;;14.87;67.97
48517;BME280;34310;51.904;4.256;2023-11-18T11:29:42;101570.81;;;14.93;67.84
48517;BME280;34310;51.904;4.256;2023-11-18T11:32:29;101561.41;;;14.95;67.70
48517;BME280;34310;51.904;4.256;2023-11-18T11:35:02;101540.72;;;14.96;67.55
48517;BME280;34310;51.904;4.256;2023-11-18T11:37:28;101534.63;;;14.96;67.64
48517;BME280;34310;51.904;4.256;2023-11-18T11:39:55;101511.13;;;14.94;67.68
48517;BME280;34310;51.904;4.256;2023-11-18T11:42:23;101513.81;;;14.96;67.71
48517;BME280;34310;51.904;4.256;2023-11-18T11:44:49;101511.13;;;14.94;67.66
48517;BME280;34310;51.904;4.256;2023-11-18T11:47:16;101517.91;;;14.92;67.78
48517;BME280;34310;51.904;4.256;2023-11-18T11:50:03;101528.03;;;14.87;67.86
48517;BME280;34310;51.904;4.256;2023-11-18T11:52:35;101515.75;;;14.85;67.91
48517;BME280;34310;51.904;4.256;2023-11-18T11:55:09;101492.25;;;14.83;67.93
48517;BME280;34310;51.904;4.256;2023-11-18T11:57:39;101493.66;;;14.78;67.97
48517;BME280;34310;51.904;4.256;2023-11-18T12:00:09;101516.16;;;14.78;68.19
48517;BME280;34310;51.904;4.256;2023-11-18T12:02:36;101511.75;;;14.77;68.35
48517;BME280;34310;51.904;4.256;2023-11-18T12:05:05;101515.97;;;14.75;68.23
48517;BME280;34310;51.904;4.256;2023-11-18T12:07:32;101514.72;;;14.70;68.32
48517;BME280;34310;51.904;4.256;2023-11-18T12:09:59;101499.03;;;14.68;68.36
48517;BME280;34310;51.904;4.256;2023-11-18T12:12:26;101497.16;;;14.66;68.47
48517;BME280;34310;51.904;4.256;2023-11-18T12:14:54;101496.06;;;14.62;68.67
48517;BME280;34310;51.904;4.256;2023-11-18T12:17:20;101470.06;;;14.62;68.67
48517;BME280;34310;51.904;4.256;2023-11-18T12:19:48;101449.88;;;14.58;68.70
48517;BME280;34310;51.904;4.256;2023-11-18T12:22:19;101442.88;;;14.57;68.75
48517;BME280;34310;51.904;4.256;2023-11-18T12:27:45;101441.78;;;14.53;68.71
48517;BME280;34310;51.904;4.256;2023-11-18T12:35:23;101446.38;;;14.44;69.29
48517;BME280;34310;51.904;4.256;2023-11-18T12:40:55;101421.78;;;14.39;69.17
48517;BME280;34310;51.904;4.256;2023-11-18T12:48:56;101420.88;;;14.39;69.23
48517;BME280;34310;51.904;4.256;2023-11-18T12:51:23;101421.78;;;14.39;69.28
48517;BME280;34310;51.904;4.256;2023-11-18T12:53:50;101399.00;;;14.35;69.47
48517;BME280;34310;51.904;4.256;2023-11-18T12:56:20;101376.41;;;14.34;69.50
48517;BME280;34310;51.904;4.256;2023-11-18T12:58:46;101379.13;;;14.36;69.30
48517;BME280;34310;51.904;4.256;2023-11-18T13:01:14;101387.72;;;14.35;69.39
48517;BME280;34310;51.904;4.256;2023-11-18T13:03:40;101388.50;;;14.34;69.21
48517;BME280;34310;51.904;4.256;2023-11-18T13:06:10;101389.50;;;14.36;69.24
48517;BME280;34310;51.904;4.256;2023-11-18T13:08:40;101373.81;;;14.34;69.33
48517;BME280;34310;51.904;4.256;2023-11-18T13:11:07;101365.22;;;14.35;69.05
48517;BME280;34310;51.904;4.256;2023-11-18T13:13:34;101361.81;;;14.36;68.99
48517;BME280;34310;51.904;4.256;2023-11-18T13:16:00;101360.31;;;14.40;68.92